Time;durP1;ratioP1;P1;durP2;ratioP2;P2;SDS_P1;SDS_P2;PMS_P1;PMS_P2;Temp;Humidity;BMP_temperature;BMP_pressure;BME280_temperature;BME280_humidity;BME280_pressure;Samples;Min_cycle;Max_cycle;Signal;HPM_P1;HPM_P2
2022/09/01 00:02:10;;;;;;;3.37;1.90;;;;;;;11.87;76.30;101969.92;1779718;78;21856;-88
2022/09/01 00:04:37;;;;;;;3.62;2.10;;;;;;;11.87;76.36;101966.86;1779332;79;22623;-88
2022/09/01 00:07:07;;;;;;;3.17;2.05;;;;;;;11.87;76.40;101964.22;1779543;78;21143;-88
2022/09/01 00:09:33;;;;;;;5.33;2.17;;;;;;;11.87;76.39;101964.64;1790114;79;21050;-89
2022/09/01 00:12:01;;;;;;;3.05;1.95;;;;;;;11.85;76.45;101956.66;1822295;77;21055;-88
2022/09/01 00:14:30;;;;;;;6.95;2.30;;;;;;;11.84;76.45;101955.28;1785312;77;21127;-89
2022/09/01 00:17:00;;;;;;;4.72;2.10;;;;;;;11.83;76.51;101960.98;1822742;77;22422;-85
2022/09/01 00:19:28;;;;;;;4.35;2.17;;;;;;;11.82;76.53;101958.28;1784576;77;21047;-85
2022/09/01 00:21:55;;;;;;;3.40;2.12;;;;;;;11.82;76.58;101959.59;1801529;78;21450;-88
2022/09/01 00:24:21;;;;;;;3.02;2.00;;;;;;;11.80;76.58;101962.17;1811503;78;21097;-86
2022/09/01 00:26:48;;;;;;;4.22;1.77;;;;;;;11.80;76.63;101957.33;1787209;79;21022;-88
2022/09/01 00:29:15;;;;;;;4.12;1.80;;;;;;;11.82;76.68;101959.59;1769239;79;22543;-88
2022/09/01 00:31:42;;;;;;;4.37;2.22;;;;;;;11.80;76.70;101948.98;1759429;80;21058;-85
2022/09/01 00:34:09;;;;;;;3.27;1.77;;;;;;;11.79;76.71;101950.27;1748063;80;21105;-85
2022/09/01 00:36:36;;;;;;;3.58;1.85;;;;;;;11.79;76.74;101950.27;1755349;80;21030;-89
2022/09/01 00:39:03;;;;;;;3.40;1.92;;;;;;;11.79;76.75;101951.16;1769268;80;21077;-88
2022/09/01 00:41:31;;;;;;;4.78;1.60;;;;;;;11.78;76.73;101947.14;1758605;79;21812;-88
2022/09/01 00:44:04;;;;;;;2.47;1.60;;;;;;;11.78;76.73;101953.30;1766223;80;21120;-89
2022/09/01 00:46:35;;;;;;;5.53;1.50;;;;;;;11.78;76.76;101955.94;1753948;80;21591;-89
2022/09/01 00:49:13;;;;;;;2.62;1.45;;;;;;;11.79;76.77;101948.52;1768954;80;21097;-88
2022/09/01 00:51:43;;;;;;;5.65;2.10;;;;;;;11.81;76.82;101957.39;1756549;80;21034;-85
2022/09/01 00:54:12;;;;;;;3.75;1.40;;;;;;;11.86;76.86;101956.23;1766435;80;21761;-85
2022/09/01 00:56:39;;;;;;;2.92;1.55;;;;;;;11.88;76.85;101958.55;1731217;80;21621;-86
2022/09/01 00:59:06;;;;;;;3.33;1.30;;;;;;;11.97;76.91;101969.89;1766723;80;21029;-86
2022/09/01 01:01:35;;;;;;;4.05;1.37;;;;;;;12.06;76.92;101967.61;1746457;80;21062;-86
2022/09/01 01:04:04;;;;;;;2.12;1.50;;;;;;;12.17;76.83;101966.70;1713081;82;21106;-86
2022/09/01 01:06:31;;;;;;;2.85;1.47;;;;;;;12.27;76.76;101970.16;1756514;81;21751;-86
2022/09/01 01:08:59;;;;;;;1.30;1.00;;;;;;;12.37;76.64;101972.31;1751132;80;21054;-87
2022/09/01 01:11:31;;;;;;;2.77;1.22;;;;;;;12.50;76.69;101972.35;1751595;80;21093;-88
2022/09/01 01:14:10;;;;;;;1.20;0.90;;;;;;;12.62;76.55;101983.34;1746426;80;21081;-87
2022/09/01 01:16:33;;;;;;;1.85;0.90;;;;;;;12.71;76.57;101981.47;1757467;80;21038;-88
2022/09/01 01:19:00;;;;;;;1.75;1.00;;;;;;;12.79;76.49;101985.27;1754964;80;21685;-88
2022/09/01 01:24:33;;;;;;;1.77;1.07;;;;;;;12.91;76.31;101977.30;1721518;80;21086;-88
2022/09/01 01:27:00;;;;;;;1.57;0.98;;;;;;;12.98;76.33;101968.31;1761321;80;21097;-88
2022/09/01 01:29:33;;;;;;;4.58;1.30;;;;;;;13.05;76.15;101971.20;1776981;76;21523;-86
2022/09/01 01:32:01;;;;;;;2.22;1.10;;;;;;;13.08;76.14;101963.34;1773415;79;21801;-85
2022/09/01 01:34:27;;;;;;;5.00;1.10;;;;;;;13.15;76.12;101959.64;1777555;79;21102;-86
2022/09/01 01:37:00;;;;;;;2.22;1.00;;;;;;;13.23;76.05;101962.14;1794602;79;21532;-86
2022/09/01 01:39:28;;;;;;;1.35;1.02;;;;;;;13.30;75.90;101953.08;1774709;79;21074;-85
2022/09/01 01:41:53;;;;;;;1.57;0.93;;;;;;;13.37;75.82;101956.44;1774798;77;21039;-85
2022/09/01 01:44:27;;;;;;;1.85;1.42;;;;;;;13.43;75.73;101949.13;1775611;79;21758;-85
2022/09/01 01:46:53;;;;;;;3.80;0.90;;;;;;;13.49;75.65;101945.35;1806707;78;21062;-85
2022/09/01 01:49:29;;;;;;;1.42;0.80;;;;;;;13.55;75.54;101945.54;1800861;78;21058;-85
2022/09/01 01:51:55;;;;;;;1.92;1.00;;;;;;;13.60;75.35;101941.30;1786606;78;21539;-86
2022/09/01 01:54:23;;;;;;;2.87;0.80;;;;;;;13.65;75.33;101935.73;1823949;77;21139;-85
2022/09/01 01:56:50;;;;;;;3.70;1.40;;;;;;;13.70;75.22;101934.14;1782742;79;21687;-86
2022/09/01 01:59:18;;;;;;;1.42;0.85;;;;;;;13.73;75.03;101934.22;1802138;79;21015;-86
2022/09/01 02:01:48;;;;;;;3.35;1.05;;;;;;;13.76;74.97;101934.33;1775552;79;21537;-86
2022/09/01 02:04:16;;;;;;;2.02;1.05;;;;;;;13.79;74.89;101940.12;1779875;79;21048;-85
2022/09/01 02:06:45;;;;;;;1.47;1.00;;;;;;;13.80;74.79;101936.20;1799722;79;21131;-86
2022/09/01 02:09:13;;;;;;;2.35;1.20;;;;;;;13.84;74.70;101936.31;1776493;79;21861;-86
2022/09/01 02:11:44;;;;;;;1.90;0.95;;;;;;;13.87;74.66;101932.41;1766604;79;21050;-86
2022/09/01 02:14:12;;;;;;;0.95;0.70;;;;;;;13.87;74.52;101925.40;1802139;79;21050;-85
2022/09/01 02:16:39;;;;;;;1.92;0.90;;;;;;;13.88;74.42;101924.96;1807090;79;21118;-85
2022/09/01 02:19:08;;;;;;;3.17;0.95;;;;;;;13.88;74.38;101926.28;1783221;79;21014;-85
2022/09/01 02:21:35;;;;;;;1.47;0.88;;;;;;;13.86;74.26;101924.02;1787446;79;21602;-85
2022/09/01 02:24:04;;;;;;;2.27;1.07;;;;;;;13.84;74.21;101920.00;1806964;77;21030;-85
2022/09/01 02:26:39;;;;;;;2.77;1.10;;;;;;;13.82;74.13;101919.05;1799257;79;21110;-85
2022/09/01 02:29:16;;;;;;;3.27;0.80;;;;;;;13.79;74.05;101918.55;1798319;77;21082;-85
2022/09/01 02:31:38;;;;;;;3.58;0.90;;;;;;;13.74;73.91;101917.91;1760496;79;21249;-85
2022/09/01 02:34:12;;;;;;;1.60;0.98;;;;;;;13.65;73.80;101922.51;1789627;78;21805;-85
2022/09/01 02:36:41;;;;;;;1.85;0.80;;;;;;;13.57;73.85;101918.70;1797606;79;21061;-85
2022/09/01 02:39:05;;;;;;;1.45;0.70;;;;;;;13.49;73.90;101918.90;1788208;78;21650;-86
2022/09/01 02:41:33;;;;;;;3.47;0.90;;;;;;;13.46;74.00;101914.83;1777653;79;21067;-85
2022/09/01 02:44:01;;;;;;;1.77;0.85;;;;;;;13.41;74.08;101919.55;1807879;79;21098;-88
2022/09/01 02:46:29;;;;;;;2.30;0.90;;;;;;;13.39;74.16;101919.92;1801827;79;22595;-89
2022/09/01 02:48:59;;;;;;;2.12;0.90;;;;;;;13.38;74.18;101916.83;1737874;79;21058;-87
2022/09/01 02:51:26;;;;;;;1.65;0.70;;;;;;;13.37;74.15;101917.66;1748824;80;21035;-88
2022/09/01 02:53:53;;;;;;;2.35;0.70;;;;;;;13.36;74.09;101908.34;1793634;79;21032;-87
2022/09/01 02:56:22;;;;;;;4.53;1.10;;;;;;;13.32;74.05;101906.03;1775490;79;21091;-88
2022/09/01 02:58:49;;;;;;;1.70;1.12;;;;;;;13.29;74.05;101907.23;1790005;79;21789;-88
2022/09/01 03:01:26;;;;;;;2.20;0.85;;;;;;;13.25;74.06;101910.64;1749584;80;21107;-88
2022/09/01 03:04:05;;;;;;;0.90;0.72;;;;;;;13.19;74.04;101903.80;1747562;80;21023;-88
2022/09/01 03:06:39;;;;;;;1.85;0.70;;;;;;;13.17;74.13;101906.39;1788104;79;21039;-89
2022/09/01 03:09:10;;;;;;;2.42;0.93;;;;;;;13.17;74.10;101904.18;1773327;79;21102;-89
2022/09/01 03:11:39;;;;;;;2.58;1.15;;;;;;;13.15;74.09;101910.73;1738247;81;22645;-89
2022/09/01 03:14:09;;;;;;;1.82;0.93;;;;;;;13.13;74.13;101918.15;1775451;79;21592;-88
2022/09/01 03:16:37;;;;;;;3.05;1.00;;;;;;;13.10;74.21;101909.70;1774902;80;21118;-88
2022/09/01 03:19:07;;;;;;;2.75;1.00;;;;;;;13.15;74.32;101919.09;1775464;79;21062;-88
2022/09/01 03:21:43;;;;;;;3.95;1.45;;;;;;;13.15;74.27;101915.13;1757787;79;21081;-89
2022/09/01 03:24:15;;;;;;;11.28;3.15;;;;;;;13.18;74.31;101915.24;1748247;81;21818;-89
2022/09/01 03:26:42;;;;;;;3.92;2.67;;;;;;;13.18;74.29;101913.48;1758919;80;21121;-90
2022/09/01 03:29:09;;;;;;;1.72;1.40;;;;;;;13.23;74.31;101910.58;1763202;80;21015;-89
2022/09/01 03:31:36;;;;;;;4.65;3.40;;;;;;;13.26;74.27;101913.73;1740211;79;21038;-89
2022/09/01 03:34:04;;;;;;;7.15;1.65;;;;;;;13.32;74.25;101911.31;1738170;81;21077;-89
2022/09/01 03:36:32;;;;;;;1.47;0.90;;;;;;;13.35;74.18;101911.42;1738086;80;21741;-89
2022/09/01 03:38:59;;;;;;;2.60;1.10;;;;;;;13.40;74.15;101916.84;1737747;81;21018;-88
2022/09/01 03:41:27;;;;;;;2.85;1.15;;;;;;;13.46;74.17;101915.75;1738257;80;21057;-89
2022/09/01 03:43:56;;;;;;;1.12;0.70;;;;;;;13.53;74.10;101916.82;1763998;79;21066;-86
2022/09/01 03:46:24;;;;;;;1.45;1.15;;;;;;;13.57;74.05;101912.09;1768893;80;21256;-85
2022/09/01 03:48:54;;;;;;;1.25;0.93;;;;;;;13.61;74.02;101913.58;1768510;80;22590;-85
2022/09/01 03:51:21;;;;;;;1.10;0.85;;;;;;;13.64;73.92;101911.87;1741836;81;21061;-86
2022/09/01 03:53:49;;;;;;;2.72;1.22;;;;;;;13.66;73.94;101910.17;1735720;80;21082;-85
2022/09/01 03:56:16;;;;;;;1.72;1.00;;;;;;;13.66;73.78;101903.55;1737667;80;21152;-88
2022/09/01 03:58:46;;;;;;;1.20;0.85;;;;;;;13.68;73.80;101911.11;1740047;81;21065;-89
2022/09/01 04:01:13;;;;;;;2.00;1.10;;;;;;;13.69;73.73;101908.52;1767951;81;21802;-89
2022/09/01 04:03:40;;;;;;;2.47;1.10;;;;;;;13.70;73.74;101909.00;1782036;80;20999;-85
2022/09/01 04:06:09;;;;;;;2.47;1.30;;;;;;;13.72;73.66;101900.69;1749500;81;21101;-85
2022/09/01 04:08:35;;;;;;;1.60;0.80;;;;;;;13.77;73.71;101906.98;1768910;80;21042;-86
2022/09/01 04:11:06;;;;;;;2.50;1.35;;;;;;;13.80;73.51;101907.53;1742013;80;21829;-85
2022/09/01 04:13:36;;;;;;;4.05;1.27;;;;;;;13.83;73.52;101910.69;1733089;80;22719;-86
2022/09/01 04:16:09;;;;;;;2.33;1.12;;;;;;;13.87;73.49;101908.59;1745372;80;21125;-89
2022/09/01 04:18:35;;;;;;;3.70;0.85;;;;;;;13.90;73.41;101899.44;1764222;80;21046;-85
2022/09/01 04:21:05;;;;;;;1.15;0.80;;;;;;;13.94;73.38;101903.96;1764253;80;21117;-86
2022/09/01 04:23:38;;;;;;;2.10;0.98;;;;;;;13.98;73.32;101903.19;1738559;81;21520;-87
2022/09/01 04:26:07;;;;;;;;;;;;;;;14.02;73.33;101909.48;1761538;80;22503;-87
2022/09/01 04:28:49;;;;;;;2.85;1.17;;;;;;;14.05;73.31;101909.14;1756122;80;20830;-89
2022/09/01 04:31:20;;;;;;;3.67;2.67;;;;;;;14.10;73.25;101904.89;1764925;80;21058;-89
2022/09/01 04:33:51;;;;;;;4.83;3.62;;;;;;;14.14;73.14;101908.53;1782174;80;21583;-87
2022/09/01 04:36:40;;;;;;;5.03;2.60;;;;;;;14.18;73.16;101906.00;1746557;81;21053;-87
2022/09/01 04:39:08;;;;;;;4.70;2.80;;;;;;;14.23;73.00;101904.82;1760469;80;21769;-88
2022/09/01 04:41:48;;;;;;;3.08;2.12;;;;;;;14.25;72.87;101910.17;1750166;80;21059;-89
2022/09/01 04:44:17;;;;;;;3.52;2.30;;;;;;;14.25;72.82;101912.81;1742585;81;21077;-85
2022/09/01 04:46:55;;;;;;;2.60;1.98;;;;;;;14.25;72.76;101911.49;1754419;79;21352;-88
2022/09/01 04:49:25;;;;;;;3.70;1.30;;;;;;;14.28;72.77;101909.80;1758341;79;21413;-88
2022/09/01 04:52:00;;;;;;;2.87;1.40;;;;;;;14.34;72.77;101913.05;1778712;79;21779;-88
2022/09/01 04:54:51;;;;;;;4.20;1.65;;;;;;;14.42;72.74;101906.67;1779142;80;21015;-88
2022/09/01 04:57:21;;;;;;;2.27;1.40;;;;;;;14.53;72.71;101910.07;1815606;77;21546;-87
2022/09/01 04:59:55;;;;;;;1.98;1.40;;;;;;;14.64;72.57;101907.76;1817291;78;21666;-88
2022/09/01 05:02:25;;;;;;;6.35;1.85;;;;;;;14.69;72.39;101912.73;1823335;77;21062;-88
2022/09/01 05:04:57;;;;;;;1.20;0.98;;;;;;;14.70;72.30;101910.56;1814682;78;21857;-88
2022/09/01 05:07:24;;;;;;;4.17;1.25;;;;;;;14.74;72.23;101908.45;1793065;77;21087;-87
2022/09/01 05:09:59;;;;;;;4.83;2.37;;;;;;;14.77;72.13;101909.88;1802278;77;21509;-90
2022/09/01 05:12:26;;;;;;;9.88;2.15;;;;;;;14.81;72.14;101909.53;1794688;79;21031;-87
2022/09/01 05:14:56;;;;;;;5.65;1.25;;;;;;;14.90;72.03;101916.39;1762969;80;21652;-89
2022/09/01 05:21:10;;;;;;;4.45;1.92;;;;;;;14.90;71.69;101915.47;1757640;80;21077;-85
2022/09/01 05:23:39;;;;;;;5.45;1.60;;;;;;;14.87;71.67;101913.66;1768538;80;21041;-84
2022/09/01 05:26:21;;;;;;;2.62;1.47;;;;;;;14.90;71.62;101917.72;1737076;80;21069;-89
2022/09/01 05:28:54;;;;;;;6.12;2.55;;;;;;;15.07;71.92;101911.92;1772770;79;21161;-88
2022/09/01 05:32:30;;;;;;;;;;;;;;;;;;;;;
2022/09/01 05:35:08;;;;;;;3.22;2.08;;;;;;;15.61;71.39;101918.53;1714740;81;21280;-84
2022/09/01 05:37:41;;;;;;;6.33;1.85;;;;;;;15.59;71.05;101917.16;1761423;79;21689;-84
2022/09/01 05:40:07;;;;;;;1.72;0.90;;;;;;;15.58;70.89;101920.70;1719557;81;21340;-84
2022/09/01 05:42:39;;;;;;;3.20;2.12;;;;;;;15.62;70.90;101920.34;1744428;80;21057;-91
2022/09/01 05:45:06;;;;;;;2.27;0.80;;;;;;;15.72;70.94;101924.54;1749290;79;21806;-93
2022/09/01 05:47:35;;;;;;;2.20;1.07;;;;;;;15.81;70.79;101919.03;1698660;82;21085;-89
2022/09/01 05:50:04;;;;;;;2.55;1.30;;;;;;;15.90;70.65;101920.12;1744148;80;21059;-89
2022/09/01 05:52:33;;;;;;;3.47;1.67;;;;;;;15.95;70.31;101914.89;1725413;80;21055;-88
2022/09/01 05:54:59;;;;;;;1.90;1.12;;;;;;;15.90;70.13;101919.23;1753433;79;21129;-90
2022/09/01 05:57:27;;;;;;;1.62;0.70;;;;;;;15.86;69.82;101918.67;1749255;80;22530;-90
2022/09/01 05:59:54;;;;;;;1.70;1.10;;;;;;;15.77;69.50;101926.46;1748071;80;21030;-89
2022/09/01 06:02:22;;;;;;;2.90;0.70;;;;;;;15.68;69.58;101924.45;1771506;80;21075;-86
2022/09/01 06:04:49;;;;;;;2.22;0.93;;;;;;;15.66;69.47;101924.41;1756429;79;21128;-87
2022/09/01 06:07:16;;;;;;;3.40;0.80;;;;;;;15.66;69.46;101920.43;1747406;81;21066;-89
2022/09/01 06:09:46;;;;;;;1.25;0.70;;;;;;;15.69;69.41;101916.53;1767827;81;21750;-87
2022/09/01 06:12:17;;;;;;;2.20;0.90;;;;;;;15.73;69.24;101911.78;1756639;80;21062;-89
2022/09/01 06:14:44;;;;;;;1.47;0.88;;;;;;;15.77;68.98;101909.20;1732228;81;21054;-87
2022/09/01 06:17:15;;;;;;;0.72;0.60;;;;;;;15.77;68.99;101906.11;1757248;79;21087;-94
2022/09/01 06:19:42;;;;;;;1.22;0.80;;;;;;;15.81;68.99;101910.63;1720990;80;21078;-88
2022/09/01 06:22:09;;;;;;;3.92;1.00;;;;;;;15.85;68.71;101908.94;1721413;82;22606;-84
2022/09/01 06:24:38;;;;;;;3.90;0.70;;;;;;;15.89;68.76;101916.98;1722249;82;21080;-84
2022/09/01 06:27:08;;;;;;;7.15;4.10;;;;;;;15.97;68.69;101915.81;1766428;79;21549;-84
2022/09/01 06:29:38;;;;;;;3.52;1.00;;;;;;;16.03;68.53;101921.28;1779130;79;21290;-83
2022/09/01 06:32:08;;;;;;;2.65;1.20;;;;;;;16.09;68.27;101916.53;1739821;79;21122;-84
2022/09/01 06:34:38;;;;;;;2.70;1.37;;;;;;;16.18;68.21;101927.35;1738537;80;22465;-88
2022/09/01 06:37:05;;;;;;;3.45;1.10;;;;;;;16.31;67.83;101938.69;1739371;82;21142;-88
2022/09/01 06:39:33;;;;;;;1.92;1.70;;;;;;;16.44;67.68;101922.56;1708050;83;21105;-84
2022/09/01 06:42:01;;;;;;;2.10;0.80;;;;;;;16.69;67.59;101905.75;1732709;82;21123;-85
2022/09/01 06:44:30;;;;;;;2.42;1.70;;;;;;;17.05;67.35;101912.61;1734186;81;21074;-84
2022/09/01 06:46:57;;;;;;;2.92;0.70;;;;;;;17.39;66.90;101921.14;1683841;83;21787;-84
2022/09/01 06:49:31;;;;;;;6.30;0.78;;;;;;;17.74;66.36;101908.80;1737440;79;21083;-85
2022/09/01 06:51:52;;;;;;;2.30;0.90;;;;;;;17.99;65.70;101910.94;1725799;79;21130;-85
2022/09/01 06:54:19;;;;;;;0.57;0.50;;;;;;;18.05;64.12;101912.78;1731602;79;21167;-84
2022/09/01 06:56:45;;;;;;;1.57;0.80;;;;;;;17.99;63.91;101924.70;1742152;79;21045;-84
2022/09/01 06:59:14;;;;;;;1.62;0.72;;;;;;;17.97;63.34;101925.13;1732253;80;22059;-84
2022/09/01 07:01:41;;;;;;;1.45;0.90;;;;;;;17.99;63.27;101918.04;1685010;83;21047;-84
2022/09/01 07:04:08;;;;;;;1.07;0.85;;;;;;;18.06;63.39;101919.47;1737385;80;21145;-84
2022/09/01 07:06:36;;;;;;;0.85;0.70;;;;;;;18.20;63.32;101938.73;1734368;79;21592;-85
2022/09/01 07:09:03;;;;;;;2.47;1.32;;;;;;;18.22;62.50;101924.53;1708197;83;21058;-84
2022/09/01 07:11:32;;;;;;;6.00;4.55;;;;;;;18.23;62.57;101917.01;1720920;81;21799;-88
2022/09/01 07:14:04;;;;;;;4.12;2.10;;;;;;;18.31;62.21;101918.43;1706211;82;21078;-84
2022/09/01 07:16:39;;;;;;;1.77;0.95;;;;;;;18.43;62.04;101927.92;1684795;83;21070;-84
2022/09/01 07:19:05;;;;;;;2.40;1.75;;;;;;;18.60;61.95;101928.52;1676349;83;21070;-84
2022/09/01 07:21:32;;;;;;;3.60;2.10;;;;;;;18.73;61.01;101938.47;1689437;83;21063;-84
2022/09/01 07:24:00;;;;;;;1.55;1.05;;;;;;;18.71;60.60;101927.30;1680290;84;22568;-87
2022/09/01 07:26:28;;;;;;;2.62;1.05;;;;;;;18.81;60.41;101926.56;1728349;81;38380;-86
2022/09/01 07:28:56;;;;;;;2.02;1.37;;;;;;;18.92;59.66;101927.98;1702637;83;21134;-86
2022/09/01 07:31:29;;;;;;;1.07;0.72;;;;;;;18.98;59.50;101938.28;1701516;80;21656;-89
2022/09/01 07:33:57;;;;;;;;;;;;;;;18.87;59.35;101931.95;1763962;80;21572;-86
2022/09/01 07:36:24;;;;;;;2.35;0.98;;;;;;;18.78;59.19;101926.49;1759521;80;21731;-86
2022/09/01 07:38:56;;;;;;;3.27;1.30;;;;;;;18.69;59.05;101936.61;1734942;81;21066;-86
2022/09/01 07:41:22;;;;;;;1.65;1.00;;;;;;;18.56;59.03;101934.28;1732517;81;21077;-86
2022/09/01 07:43:52;;;;;;;2.05;1.00;;;;;;;18.43;59.00;101934.58;1739816;80;21310;-86
2022/09/01 07:46:17;;;;;;;2.47;0.90;;;;;;;18.36;59.21;101935.37;1745833;81;21364;-83
2022/09/01 07:48:44;;;;;;;1.95;1.00;;;;;;;18.41;59.26;101936.75;1731192;81;22570;-83
2022/09/01 07:51:17;;;;;;;2.10;1.25;;;;;;;18.40;59.10;101934.53;1728946;82;21059;-85
2022/09/01 07:53:40;;;;;;;1.57;0.75;;;;;;;18.31;58.46;101944.20;1723972;80;21082;-83
2022/09/01 07:56:09;;;;;;;1.05;0.95;;;;;;;18.18;58.60;101949.36;1755773;80;21062;-83
2022/09/01 07:58:38;;;;;;;1.85;0.88;;;;;;;18.16;58.74;101952.45;1751017;79;21106;-85
2022/09/01 08:01:10;;;;;;;1.80;0.70;;;;;;;18.30;58.59;101944.64;1726269;81;22581;-83
2022/09/01 08:03:38;;;;;;;1.40;0.90;;;;;;;18.54;58.24;101947.12;1749788;80;21079;-83
2022/09/01 08:06:08;;;;;;;2.10;0.95;;;;;;;18.72;58.08;101944.66;1757635;80;21058;-87
2022/09/01 08:08:35;;;;;;;1.87;1.10;;;;;;;18.98;57.80;101948.07;1757587;79;21051;-86
2022/09/01 08:11:02;;;;;;;3.45;1.27;;;;;;;19.21;57.40;101922.45;1760331;79;21066;-89
2022/09/01 08:19:56;;;;;;;2.45;1.10;;;;;;;18.82;55.53;101956.34;1490383;91;21463;-88
2022/09/01 08:22:24;;;;;;;1.10;0.80;;;;;;;18.47;55.58;101958.17;1638412;85;21166;-86
2022/09/01 08:24:54;;;;;;;1.57;0.90;;;;;;;18.20;54.72;101952.05;1652864;84;21177;-89
2022/09/01 08:27:24;;;;;;;2.72;1.00;;;;;;;18.09;55.61;101956.34;1649254;84;22753;-84
2022/09/01 08:29:51;;;;;;;3.02;0.75;;;;;;;18.17;55.92;101960.91;1653133;84;21337;-83
2022/09/01 08:32:19;;;;;;;1.70;0.88;;;;;;;18.26;55.07;101962.78;1655038;84;21104;-86
2022/09/01 08:34:46;;;;;;;1.02;0.80;;;;;;;18.20;55.14;101960.93;1669462;83;21119;-89
2022/09/01 08:40:26;;;;;;;3.72;2.00;;;;;;;18.15;54.33;101975.08;1547987;87;21130;-84
2022/09/01 08:43:21;;;;;;;1.55;1.27;;;;;;;18.28;54.12;101962.80;1664649;83;21122;-85
2022/09/01 08:45:57;;;;;;;4.35;3.67;;;;;;;18.46;54.02;101960.38;1664964;84;21115;-85
2022/09/01 08:48:47;;;;;;;1.80;1.30;;;;;;;18.69;53.96;101956.62;1657972;84;21468;-84
2022/09/01 08:51:41;;;;;;;0.72;0.70;;;;;;;19.05;53.97;101951.25;1648712;85;21582;-85
2022/09/01 08:55:04;;;;;;;3.08;2.33;;;;;;;19.16;53.24;101952.66;1699180;80;21241;-85
2022/09/01 08:57:54;;;;;;;1.27;0.88;;;;;;;19.03;53.51;101952.98;1751696;80;21103;-85
2022/09/01 09:00:23;;;;;;;2.27;1.07;;;;;;;18.92;53.18;101946.66;1720083;81;21143;-85
2022/09/01 09:03:31;;;;;;;2.27;0.80;;;;;;;18.70;53.55;101953.09;1749455;79;21095;-85
2022/09/01 09:06:24;;;;;;;2.90;0.93;;;;;;;18.67;53.39;101957.05;1766913;80;21643;-84
2022/09/01 09:09:06;;;;;;;1.32;0.88;;;;;;;18.71;53.05;101954.86;1797473;79;21793;-85
2022/09/01 09:12:09;;;;;;;1.85;0.72;;;;;;;18.83;53.28;101948.36;1784643;78;22238;-88
2022/09/01 09:14:54;;;;;;;3.72;1.37;;;;;;;18.82;52.66;101953.23;1796432;79;21080;-86
2022/09/01 09:17:24;;;;;;;3.55;0.98;;;;;;;18.74;52.22;101961.58;1809594;77;21438;-83
2022/09/01 09:19:51;;;;;;;2.22;1.00;;;;;;;18.79;53.49;101968.30;1807166;77;21578;-83
2022/09/01 09:22:18;;;;;;;3.47;0.88;;;;;;;18.92;54.18;101954.66;1789046;78;21738;-84
2022/09/01 09:24:54;;;;;;;2.00;0.60;;;;;;;18.90;54.22;101954.67;1786462;79;21065;-84
2022/09/01 09:27:30;;;;;;;1.72;0.70;;;;;;;18.79;54.31;101954.97;1791719;77;21101;-86
2022/09/01 09:30:02;;;;;;;2.77;0.72;;;;;;;18.73;54.62;101946.88;1798658;79;21070;-83
2022/09/01 09:32:52;;;;;;;2.33;0.70;;;;;;;18.86;55.19;101942.16;1801132;77;21380;-84
2022/09/01 09:35:32;;;;;;;2.83;1.75;;;;;;;19.17;55.31;101944.67;1805742;77;21854;-87
2022/09/01 09:38:21;;;;;;;2.35;1.40;;;;;;;19.47;55.12;101951.59;1792020;77;21188;-87
2022/09/01 09:41:01;;;;;;;18.73;1.92;;;;;;;19.36;54.36;101985.77;1810830;77;21792;-83
2022/09/01 09:43:31;;;;;;;4.90;0.95;;;;;;;18.25;59.27;101967.67;1802108;77;21090;-87
2022/09/01 09:46:37;;;;;;;6.12;1.20;;;;;;;16.65;61.62;101982.33;1802921;77;21578;-87
2022/09/01 09:49:25;;;;;;;1.75;0.90;;;;;;;15.89;63.17;101980.71;1798065;77;21806;-87
2022/09/01 09:51:57;;;;;;;1.45;0.68;;;;;;;15.44;64.27;101978.73;1801233;77;21062;-86
2022/09/01 09:54:30;;;;;;;2.20;1.07;;;;;;;15.38;64.76;101980.34;1788455;78;21062;-87
2022/09/01 09:57:15;;;;;;;5.17;1.70;;;;;;;15.44;65.29;101982.70;1758713;79;21127;-88
2022/09/01 09:59:55;;;;;;;3.80;2.45;;;;;;;15.65;66.12;101978.34;1807445;77;21081;-88
2022/09/01 10:02:37;;;;;;;3.00;0.90;;;;;;;15.93;67.02;101989.64;1781895;79;21794;-83
2022/09/01 10:05:43;;;;;;;3.90;1.37;;;;;;;16.18;66.71;101979.16;1791216;77;21528;-84
2022/09/01 10:08:14;;;;;;;2.92;2.20;;;;;;;16.41;66.61;101979.63;1802069;77;21065;-86
2022/09/01 10:10:45;;;;;;;4.28;2.05;;;;;;;16.76;66.83;101979.86;1814151;77;21058;-87
2022/09/01 10:13:20;;;;;;;2.22;1.40;;;;;;;17.09;67.26;101984.50;1803149;77;21857;-88
2022/09/01 10:15:51;;;;;;;5.25;1.87;;;;;;;17.40;66.99;101985.45;1797599;78;21875;-87
2022/09/01 10:18:21;;;;;;;3.60;1.40;;;;;;;17.59;66.09;101988.02;1795997;78;21121;-84
2022/09/01 10:21:00;;;;;;;4.60;1.30;;;;;;;17.48;65.69;101994.05;1797038;78;21066;-84
2022/09/01 10:23:32;;;;;;;2.72;1.10;;;;;;;17.09;65.69;102004.90;1802282;77;21046;-84
2022/09/01 10:26:05;;;;;;;1.92;1.47;;;;;;;16.74;65.93;102013.50;1793800;79;21105;-83
2022/09/01 10:28:33;;;;;;;;;;;;;;;16.48;66.43;102012.11;1801067;79;21715;-84
2022/09/01 10:31:02;;;;;;;3.00;1.40;;;;;;;16.39;66.47;102021.22;1803467;79;20204;-85
2022/09/01 10:33:34;;;;;;;3.22;1.40;;;;;;;16.27;66.67;102029.83;1773052;78;21136;-84
2022/09/01 10:36:05;;;;;;;;;;;;;;;16.13;66.19;102019.32;1765052;79;21109;-84
2022/09/01 10:38:37;;;;;;;1.20;0.82;;;;;;;16.11;66.46;102010.42;1755328;79;20621;-85
2022/09/01 10:41:34;;;;;;;2.85;0.80;;;;;;;16.24;66.59;102006.28;1757848;80;21852;-86
2022/09/01 10:44:33;;;;;;;2.20;0.95;;;;;;;16.39;66.12;101999.96;1739069;79;21058;-85
2022/09/01 10:47:09;;;;;;;1.55;0.82;;;;;;;16.57;65.66;101995.44;1741327;79;21069;-83
2022/09/01 10:49:53;;;;;;;2.20;0.80;;;;;;;16.74;65.79;101994.44;1741384;79;21050;-83
2022/09/01 10:52:50;;;;;;;1.50;0.70;;;;;;;16.84;65.60;101995.58;1766052;79;21041;-85
2022/09/01 10:55:25;;;;;;;3.75;0.65;;;;;;;16.88;65.31;101992.98;1754271;80;21777;-86
2022/09/01 10:58:25;;;;;;;;;;;;;;;;;;;;;
2022/09/01 11:00:44;;;;;;;1.85;0.80;;;;;;;16.84;64.87;101995.58;1737583;80;21097;-84
2022/09/01 11:03:17;;;;;;;2.52;1.07;;;;;;;16.78;64.84;101993.66;1759094;80;21924;-87
2022/09/01 11:06:08;;;;;;;2.10;0.90;;;;;;;16.77;65.42;101996.29;1752766;79;21049;-86
2022/09/01 11:08:42;;;;;;;3.98;1.45;;;;;;;16.85;65.93;101995.58;1763027;81;21714;-83
2022/09/01 11:11:32;;;;;;;2.72;1.22;;;;;;;17.03;66.03;101990.16;1751015;80;21689;-84
2022/09/01 11:14:02;;;;;;;1.32;0.80;;;;;;;17.19;65.71;101992.23;1758765;80;21106;-84
2022/09/01 11:16:37;;;;;;;3.17;1.15;;;;;;;17.40;65.87;101985.05;1752347;79;21583;-84
2022/09/01 11:19:42;;;;;;;3.80;1.07;;;;;;;17.61;65.50;101980.50;1760439;80;21027;-84
2022/09/01 11:22:35;;;;;;;1.82;0.90;;;;;;;17.87;65.16;101977.38;1742846;79;21839;-84
2022/09/01 11:25:26;;;;;;;2.37;1.07;;;;;;;18.03;64.77;101974.48;1772726;80;21121;-84
2022/09/01 11:27:56;;;;;;;4.03;0.95;;;;;;;18.18;64.54;101973.80;1761410;81;21720;-85
2022/09/01 11:30:54;;;;;;;2.50;1.00;;;;;;;18.18;63.11;101973.34;1762076;80;21071;-85
2022/09/01 11:33:56;;;;;;;1.17;0.70;;;;;;;18.14;62.13;101978.63;1739341;80;21627;-87
2022/09/01 11:36:49;;;;;;;2.75;0.68;;;;;;;18.16;61.39;101972.87;1754478;80;21886;-85
2022/09/01 11:39:41;;;;;;;2.87;1.02;;;;;;;18.21;60.62;101974.73;1752796;79;21550;-84
2022/09/01 11:42:30;;;;;;;2.30;0.95;;;;;;;18.35;60.32;101977.56;1741757;80;21574;-85
2022/09/01 11:45:08;;;;;;;4.25;1.05;;;;;;;18.49;59.92;101978.16;1703861;83;21156;-85
2022/09/01 11:47:49;;;;;;;3.58;2.25;;;;;;;18.61;59.05;101987.66;1723504;83;21117;-84
2022/09/01 11:50:28;;;;;;;3.37;2.60;;;;;;;18.64;58.33;101979.70;1680602;84;21830;-86
2022/09/01 11:53:04;;;;;;;2.35;1.20;;;;;;;18.64;58.16;101981.92;1712458;83;21078;-87
2022/09/01 11:55:36;;;;;;;2.72;1.72;;;;;;;18.90;58.81;101985.77;1705377;83;21106;-85
2022/09/01 11:58:03;;;;;;;2.80;1.42;;;;;;;19.12;58.82;101992.22;1698086;83;21690;-88
2022/09/01 12:00:39;;;;;;;4.28;1.30;;;;;;;19.13;58.72;101985.56;1717975;83;21035;-87
2022/09/01 12:03:28;;;;;;;3.83;1.30;;;;;;;18.95;58.27;101987.61;1713225;83;23433;-85
2022/09/01 12:06:02;;;;;;;4.42;1.55;;;;;;;18.74;58.43;101980.24;1714143;83;21069;-86
2022/09/01 12:08:33;;;;;;;1.47;0.70;;;;;;;18.58;58.35;101995.19;1702385;83;21130;-86
2022/09/01 12:11:23;;;;;;;2.47;0.80;;;;;;;18.46;58.46;101990.58;1715262;83;21102;-84
2022/09/01 12:14:06;;;;;;;1.72;1.20;;;;;;;18.52;58.59;101987.09;1689067;83;22084;-85